sensor_id;sensor_type;location;lat;lon;timestamp;temperature;humidity
13268;DHT22;6702;47.068;15.458;2023-06-22T00:01:54;24.20;99.90
13268;DHT22;6702;47.068;15.458;2023-06-22T00:04:57;24.20;99.90
13268;DHT22;6702;47.068;15.458;2023-06-22T00:08:02;24.10;99.90
13268;DHT22;6702;47.068;15.458;2023-06-22T00:11:06;24.10;99.90
13268;DHT22;6702;47.068;15.458;2023-06-22T00:14:09;24.10;99.90
13268;DHT22;6702;47.068;15.458;2023-06-22T00:17:13;24.00;99.90
13268;DHT22;6702;47.068;15.458;2023-06-22T00:20:17;24.00;99.90
13268;DHT22;6702;47.068;15.458;2023-06-22T00:23:20;24.00;99.90
13268;DHT22;6702;47.068;15.458;2023-06-22T00:26:25;24.00;99.90
13268;DHT22;6702;47.068;15.458;2023-06-22T00:29:31;24.00;99.90
13268;DHT22;6702;47.068;15.458;2023-06-22T00:32:36;24.10;99.90
13268;DHT22;6702;47.068;15.458;2023-06-22T00:35:39;24.10;99.90
13268;DHT22;6702;47.068;15.458;2023-06-22T00:38:43;24.10;99.90
13268;DHT22;6702;47.068;15.458;2023-06-22T00:41:47;24.00;99.90
13268;DHT22;6702;47.068;15.458;2023-06-22T00:44:53;24.10;99.90
13268;DHT22;6702;47.068;15.458;2023-06-22T00:47:58;24.00;99.90
13268;DHT22;6702;47.068;15.458;2023-06-22T00:51:02;24.00;99.90
13268;DHT22;6702;47.068;15.458;2023-06-22T00:54:05;24.00;99.90
13268;DHT22;6702;47.068;15.458;2023-06-22T00:57:08;24.00;99.90
13268;DHT22;6702;47.068;15.458;2023-06-22T01:00:14;23.90;99.90
13268;DHT22;6702;47.068;15.458;2023-06-22T01:03:20;23.90;99.90
13268;DHT22;6702;47.068;15.458;2023-06-22T01:06:28;23.90;99.90
13268;DHT22;6702;47.068;15.458;2023-06-22T01:09:47;23.80;99.90
13268;DHT22;6702;47.068;15.458;2023-06-22T01:12:55;23.80;99.90
13268;DHT22;6702;47.068;15.458;2023-06-22T01:16:03;23.70;99.90
13268;DHT22;6702;47.068;15.458;2023-06-22T01:19:27;23.60;99.90
13268;DHT22;6702;47.068;15.458;2023-06-22T01:22:35;23.50;99.90
13268;DHT22;6702;47.068;15.458;2023-06-22T01:25:49;23.40;99.90
13268;DHT22;6702;47.068;15.458;2023-06-22T01:28:59;23.30;99.90
13268;DHT22;6702;47.068;15.458;2023-06-22T01:32:04;23.10;99.90
13268;DHT22;6702;47.068;15.458;2023-06-22T01:35:11;23.00;99.90
13268;DHT22;6702;47.068;15.458;2023-06-22T01:38:15;22.90;99.90
13268;DHT22;6702;47.068;15.458;2023-06-22T01:41:19;22.80;99.90
13268;DHT22;6702;47.068;15.458;2023-06-22T01:44:25;22.70;99.90
13268;DHT22;6702;47.068;15.458;2023-06-22T01:47:29;22.70;99.90
13268;DHT22;6702;47.068;15.458;2023-06-22T01:50:33;22.70;99.90
13268;DHT22;6702;47.068;15.458;2023-06-22T01:53:36;22.70;99.90
13268;DHT22;6702;47.068;15.458;2023-06-22T01:56:39;22.70;99.90
13268;DHT22;6702;47.068;15.458;2023-06-22T01:59:48;22.50;99.90
13268;DHT22;6702;47.068;15.458;2023-06-22T02:02:59;22.40;99.90
13268;DHT22;6702;47.068;15.458;2023-06-22T02:06:05;22.40;99.90
13268;DHT22;6702;47.068;15.458;2023-06-22T02:09:12;22.30;99.90
13268;DHT22;6702;47.068;15.458;2023-06-22T02:12:19;22.30;99.90
13268;DHT22;6702;47.068;15.458;2023-06-22T02:15:26;22.20;99.90
13268;DHT22;6702;47.068;15.458;2023-06-22T02:18:29;22.20;99.90
13268;DHT22;6702;47.068;15.458;2023-06-22T02:21:34;22.30;99.90
13268;DHT22;6702;47.068;15.458;2023-06-22T02:24:37;22.30;99.90
13268;DHT22;6702;47.068;15.458;2023-06-22T02:27:40;22.30;99.90
13268;DHT22;6702;47.068;15.458;2023-06-22T02:30:44;22.30;99.90
13268;DHT22;6702;47.068;15.458;2023-06-22T02:33:47;22.30;99.90
13268;DHT22;6702;47.068;15.458;2023-06-22T02:36:51;22.30;99.90
13268;DHT22;6702;47.068;15.458;2023-06-22T02:39:57;22.30;99.90
13268;DHT22;6702;47.068;15.458;2023-06-22T02:43:05;22.40;99.90
13268;DHT22;6702;47.068;15.458;2023-06-22T02:46:10;22.40;99.90
13268;DHT22;6702;47.068;15.458;2023-06-22T02:49:13;22.30;99.90
13268;DHT22;6702;47.068;15.458;2023-06-22T02:52:16;22.30;99.90
13268;DHT22;6702;47.068;15.458;2023-06-22T02:55:19;22.40;99.90
13268;DHT22;6702;47.068;15.458;2023-06-22T02:58:22;22.40;99.90
13268;DHT22;6702;47.068;15.458;2023-06-22T03:01:27;22.40;99.90
13268;DHT22;6702;47.068;15.458;2023-06-22T03:04:42;22.40;99.90
13268;DHT22;6702;47.068;15.458;2023-06-22T03:07:45;22.40;99.90
13268;DHT22;6702;47.068;15.458;2023-06-22T03:10:48;22.40;99.90
13268;DHT22;6702;47.068;15.458;2023-06-22T03:13:52;22.30;99.90
13268;DHT22;6702;47.068;15.458;2023-06-22T03:16:56;22.30;99.90
13268;DHT22;6702;47.068;15.458;2023-06-22T03:20:05;22.30;99.90
13268;DHT22;6702;47.068;15.458;2023-06-22T03:23:10;22.30;99.90
13268;DHT22;6702;47.068;15.458;2023-06-22T03:26:16;22.30;99.90
13268;DHT22;6702;47.068;15.458;2023-06-22T03:29:19;22.30;99.90
13268;DHT22;6702;47.068;15.458;2023-06-22T03:32:24;22.30;99.90
13268;DHT22;6702;47.068;15.458;2023-06-22T03:35:29;22.40;99.90
13268;DHT22;6702;47.068;15.458;2023-06-22T03:38:33;22.50;99.90
13268;DHT22;6702;47.068;15.458;2023-06-22T03:41:36;22.40;99.90
13268;DHT22;6702;47.068;15.458;2023-06-22T03:44:39;22.50;99.90
13268;DHT22;6702;47.068;15.458;2023-06-22T03:47:44;22.60;99.90
13268;DHT22;6702;47.068;15.458;2023-06-22T03:50:47;22.60;99.90
13268;DHT22;6702;47.068;15.458;2023-06-22T03:53:50;22.60;99.90
13268;DHT22;6702;47.068;15.458;2023-06-22T03:56:53;22.60;99.90
13268;DHT22;6702;47.068;15.458;2023-06-22T03:59:58;22.60;99.90
13268;DHT22;6702;47.068;15.458;2023-06-22T04:03:05;22.60;99.90
13268;DHT22;6702;47.068;15.458;2023-06-22T04:06:09;22.60;99.90
13268;DHT22;6702;47.068;15.458;2023-06-22T04:09:12;22.70;99.90
13268;DHT22;6702;47.068;15.458;2023-06-22T04:12:17;22.80;99.90
13268;DHT22;6702;47.068;15.458;2023-06-22T04:15:20;22.80;99.90
13268;DHT22;6702;47.068;15.458;2023-06-22T04:18:25;22.80;99.90
13268;DHT22;6702;47.068;15.458;2023-06-22T04:21:28;22.90;99.90
13268;DHT22;6702;47.068;15.458;2023-06-22T04:24:31;22.90;99.90
13268;DHT22;6702;47.068;15.458;2023-06-22T04:27:34;23.00;99.90
13268;DHT22;6702;47.068;15.458;2023-06-22T04:30:39;23.00;99.90
13268;DHT22;6702;47.068;15.458;2023-06-22T04:33:50;23.10;99.90
13268;DHT22;6702;47.068;15.458;2023-06-22T04:36:53;23.10;99.90
13268;DHT22;6702;47.068;15.458;2023-06-22T04:39:56;23.20;99.90
13268;DHT22;6702;47.068;15.458;2023-06-22T04:42:59;23.30;99.90
13268;DHT22;6702;47.068;15.458;2023-06-22T04:46:04;23.40;99.90
13268;DHT22;6702;47.068;15.458;2023-06-22T04:49:09;23.40;99.90
13268;DHT22;6702;47.068;15.458;2023-06-22T04:52:13;23.50;99.90
13268;DHT22;6702;47.068;15.458;2023-06-22T04:55:22;23.60;99.90
13268;DHT22;6702;47.068;15.458;2023-06-22T04:58:27;23.70;99.90
13268;DHT22;6702;47.068;15.458;2023-06-22T05:01:34;23.80;99.90
13268;DHT22;6702;47.068;15.458;2023-06-22T05:04:39;23.90;99.90
13268;DHT22;6702;47.068;15.458;2023-06-22T05:07:43;24.10;99.90
13268;DHT22;6702;47.068;15.458;2023-06-22T05:10:46;24.20;99.90
13268;DHT22;6702;47.068;15.458;2023-06-22T05:14:06;24.30;99.90
13268;DHT22;6702;47.068;15.458;2023-06-22T05:17:09;24.40;99.90
13268;DHT22;6702;47.068;15.458;2023-06-22T05:20:18;24.50;99.90
13268;DHT22;6702;47.068;15.458;2023-06-22T05:23:21;24.60;99.90
13268;DHT22;6702;47.068;15.458;2023-06-22T05:26:25;24.70;99.90
13268;DHT22;6702;47.068;15.458;2023-06-22T05:29:28;24.80;99.90
13268;DHT22;6702;47.068;15.458;2023-06-22T05:32:31;24.90;99.90
13268;DHT22;6702;47.068;15.458;2023-06-22T05:35:36;25.00;99.90
13268;DHT22;6702;47.068;15.458;2023-06-22T05:38:40;25.20;99.90
13268;DHT22;6702;47.068;15.458;2023-06-22T05:41:44;25.30;99.90
13268;DHT22;6702;47.068;15.458;2023-06-22T05:44:48;25.50;99.90
13268;DHT22;6702;47.068;15.458;2023-06-22T05:47:51;25.60;99.90
13268;DHT22;6702;47.068;15.458;2023-06-22T05:50:55;25.70;99.90
13268;DHT22;6702;47.068;15.458;2023-06-22T05:53:59;25.90;99.90
13268;DHT22;6702;47.068;15.458;2023-06-22T05:57:02;25.90;99.90
13268;DHT22;6702;47.068;15.458;2023-06-22T06:00:07;26.10;99.90
13268;DHT22;6702;47.068;15.458;2023-06-22T06:03:13;26.20;99.90
13268;DHT22;6702;47.068;15.458;2023-06-22T06:06:20;26.40;99.90
13268;DHT22;6702;47.068;15.458;2023-06-22T06:09:24;26.50;99.90
13268;DHT22;6702;47.068;15.458;2023-06-22T06:12:27;26.70;99.90
13268;DHT22;6702;47.068;15.458;2023-06-22T06:15:31;27.00;99.90
13268;DHT22;6702;47.068;15.458;2023-06-22T06:18:34;27.30;99.90
13268;DHT22;6702;47.068;15.458;2023-06-22T06:21:40;27.60;99.90
13268;DHT22;6702;47.068;15.458;2023-06-22T06:24:43;28.00;99.20
13268;DHT22;6702;47.068;15.458;2023-06-22T06:27:47;28.40;98.30
13268;DHT22;6702;47.068;15.458;2023-06-22T06:30:51;28.80;97.70
13268;DHT22;6702;47.068;15.458;2023-06-22T06:33:54;29.20;96.90
13268;DHT22;6702;47.068;15.458;2023-06-22T06:36:59;29.70;96.00
13268;DHT22;6702;47.068;15.458;2023-06-22T06:40:02;30.00;94.90
13268;DHT22;6702;47.068;15.458;2023-06-22T06:43:08;30.50;94.40
13268;DHT22;6702;47.068;15.458;2023-06-22T06:46:11;30.80;93.10
13268;DHT22;6702;47.068;15.458;2023-06-22T06:49:15;31.30;92.40
13268;DHT22;6702;47.068;15.458;2023-06-22T06:52:19;31.90;91.20
13268;DHT22;6702;47.068;15.458;2023-06-22T06:55:22;32.20;90.10
13268;DHT22;6702;47.068;15.458;2023-06-22T06:58:27;32.60;88.10
13268;DHT22;6702;47.068;15.458;2023-06-22T07:01:30;33.00;86.20
13268;DHT22;6702;47.068;15.458;2023-06-22T07:04:35;33.30;84.20
13268;DHT22;6702;47.068;15.458;2023-06-22T07:07:40;33.90;81.70
13268;DHT22;6702;47.068;15.458;2023-06-22T07:10:45;34.30;77.00
13268;DHT22;6702;47.068;15.458;2023-06-22T07:13:48;34.70;75.80
13268;DHT22;6702;47.068;15.458;2023-06-22T07:16:51;35.10;72.10
13268;DHT22;6702;47.068;15.458;2023-06-22T07:19:54;35.60;69.70
13268;DHT22;6702;47.068;15.458;2023-06-22T07:22:59;36.10;67.70
13268;DHT22;6702;47.068;15.458;2023-06-22T07:26:02;36.50;64.50
13268;DHT22;6702;47.068;15.458;2023-06-22T07:29:08;36.90;62.50
13268;DHT22;6702;47.068;15.458;2023-06-22T07:32:11;37.30;60.50
13268;DHT22;6702;47.068;15.458;2023-06-22T07:35:14;37.60;59.00
13268;DHT22;6702;47.068;15.458;2023-06-22T07:38:19;37.70;57.00
13268;DHT22;6702;47.068;15.458;2023-06-22T07:41:23;36.60;57.40
13268;DHT22;6702;47.068;15.458;2023-06-22T07:44:26;36.30;59.10
13268;DHT22;6702;47.068;15.458;2023-06-22T07:47:29;36.10;59.30
13268;DHT22;6702;47.068;15.458;2023-06-22T07:50:35;35.70;60.20
13268;DHT22;6702;47.068;15.458;2023-06-22T07:53:41;35.20;59.80
13268;DHT22;6702;47.068;15.458;2023-06-22T07:56:46;34.90;61.30
13268;DHT22;6702;47.068;15.458;2023-06-22T07:59:49;34.30;62.40
13268;DHT22;6702;47.068;15.458;2023-06-22T08:02:52;34.10;63.80
13268;DHT22;6702;47.068;15.458;2023-06-22T08:05:56;33.50;65.60
13268;DHT22;6702;47.068;15.458;2023-06-22T08:09:01;33.50;66.20
13268;DHT22;6702;47.068;15.458;2023-06-22T08:12:05;33.60;66.70
13268;DHT22;6702;47.068;15.458;2023-06-22T08:15:08;33.30;66.70
13268;DHT22;6702;47.068;15.458;2023-06-22T08:18:12;33.40;67.10
13268;DHT22;6702;47.068;15.458;2023-06-22T08:21:15;33.00;67.30
13268;DHT22;6702;47.068;15.458;2023-06-22T08:24:20;32.80;69.40
13268;DHT22;6702;47.068;15.458;2023-06-22T08:27:23;33.10;69.30
13268;DHT22;6702;47.068;15.458;2023-06-22T08:30:30;33.00;68.80
13268;DHT22;6702;47.068;15.458;2023-06-22T08:33:33;32.90;68.20
13268;DHT22;6702;47.068;15.458;2023-06-22T08:36:36;32.90;68.30
13268;DHT22;6702;47.068;15.458;2023-06-22T08:39:44;33.20;67.60
13268;DHT22;6702;47.068;15.458;2023-06-22T08:42:48;32.90;67.30
13268;DHT22;6702;47.068;15.458;2023-06-22T08:45:51;32.40;68.70
13268;DHT22;6702;47.068;15.458;2023-06-22T08:48:55;32.50;68.70
13268;DHT22;6702;47.068;15.458;2023-06-22T08:51:58;32.60;68.30
13268;DHT22;6702;47.068;15.458;2023-06-22T08:55:03;32.80;68.30
13268;DHT22;6702;47.068;15.458;2023-06-22T08:58:06;33.00;67.80
13268;DHT22;6702;47.068;15.458;2023-06-22T09:01:09;33.30;67.30
13268;DHT22;6702;47.068;15.458;2023-06-22T09:04:13;33.30;67.70
13268;DHT22;6702;47.068;15.458;2023-06-22T09:07:17;33.50;67.20
13268;DHT22;6702;47.068;15.458;2023-06-22T09:10:25;33.50;66.90
13268;DHT22;6702;47.068;15.458;2023-06-22T09:13:31;33.40;66.90
13268;DHT22;6702;47.068;15.458;2023-06-22T09:16:34;33.40;66.50
13268;DHT22;6702;47.068;15.458;2023-06-22T09:19:37;33.50;66.40
13268;DHT22;6702;47.068;15.458;2023-06-22T09:22:41;33.30;68.20
13268;DHT22;6702;47.068;15.458;2023-06-22T09:25:45;33.20;67.50
13268;DHT22;6702;47.068;15.458;2023-06-22T09:28:49;33.10;68.20
13268;DHT22;6702;47.068;15.458;2023-06-22T09:31:53;33.40;68.00
13268;DHT22;6702;47.068;15.458;2023-06-22T09:34:58;33.70;67.20
13268;DHT22;6702;47.068;15.458;2023-06-22T09:38:01;34.00;66.80
13268;DHT22;6702;47.068;15.458;2023-06-22T09:41:05;33.90;66.50
13268;DHT22;6702;47.068;15.458;2023-06-22T09:44:09;33.80;66.50
13268;DHT22;6702;47.068;15.458;2023-06-22T09:47:12;33.60;66.30
13268;DHT22;6702;47.068;15.458;2023-06-22T09:50:15;33.80;65.70
13268;DHT22;6702;47.068;15.458;2023-06-22T09:53:19;34.10;65.60
13268;DHT22;6702;47.068;15.458;2023-06-22T09:56:23;34.20;64.90
13268;DHT22;6702;47.068;15.458;2023-06-22T09:59:30;34.30;65.80
13268;DHT22;6702;47.068;15.458;2023-06-22T10:02:33;34.30;65.50
13268;DHT22;6702;47.068;15.458;2023-06-22T10:05:37;34.10;66.40
13268;DHT22;6702;47.068;15.458;2023-06-22T10:08:40;33.50;67.30
13268;DHT22;6702;47.068;15.458;2023-06-22T10:11:44;33.50;68.50
13268;DHT22;6702;47.068;15.458;2023-06-22T10:14:47;33.80;67.80
13268;DHT22;6702;47.068;15.458;2023-06-22T10:17:51;33.90;66.00
13268;DHT22;6702;47.068;15.458;2023-06-22T10:20:54;34.00;66.40
13268;DHT22;6702;47.068;15.458;2023-06-22T10:23:58;34.10;66.00
13268;DHT22;6702;47.068;15.458;2023-06-22T10:27:06;34.20;66.40
13268;DHT22;6702;47.068;15.458;2023-06-22T10:30:10;34.40;66.00
13268;DHT22;6702;47.068;15.458;2023-06-22T10:33:15;34.20;64.40
13268;DHT22;6702;47.068;15.458;2023-06-22T10:36:18;34.10;64.10
13268;DHT22;6702;47.068;15.458;2023-06-22T10:39:21;34.20;64.10
13268;DHT22;6702;47.068;15.458;2023-06-22T10:42:26;34.10;64.80
13268;DHT22;6702;47.068;15.458;2023-06-22T10:45:29;33.80;64.90
13268;DHT22;6702;47.068;15.458;2023-06-22T10:48:33;33.80;66.70
13268;DHT22;6702;47.068;15.458;2023-06-22T10:51:36;33.80;67.20
13268;DHT22;6702;47.068;15.458;2023-06-22T10:54:39;34.10;67.30
13268;DHT22;6702;47.068;15.458;2023-06-22T10:57:47;34.10;68.20
13268;DHT22;6702;47.068;15.458;2023-06-22T11:00:50;33.80;68.10
13268;DHT22;6702;47.068;15.458;2023-06-22T11:03:53;33.50;68.90
13268;DHT22;6702;47.068;15.458;2023-06-22T11:06:56;33.60;68.70
13268;DHT22;6702;47.068;15.458;2023-06-22T11:10:00;33.80;67.70
13268;DHT22;6702;47.068;15.458;2023-06-22T11:13:04;33.90;68.30
13268;DHT22;6702;47.068;15.458;2023-06-22T11:16:12;33.80;68.00
13268;DHT22;6702;47.068;15.458;2023-06-22T11:19:16;33.90;67.30
13268;DHT22;6702;47.068;15.458;2023-06-22T11:22:19;34.10;67.20
13268;DHT22;6702;47.068;15.458;2023-06-22T11:25:22;34.20;67.60
13268;DHT22;6702;47.068;15.458;2023-06-22T11:28:27;34.40;67.70
13268;DHT22;6702;47.068;15.458;2023-06-22T11:31:30;34.40;67.40
13268;DHT22;6702;47.068;15.458;2023-06-22T11:34:33;34.30;67.60
13268;DHT22;6702;47.068;15.458;2023-06-22T11:37:37;34.40;67.00
13268;DHT22;6702;47.068;15.458;2023-06-22T11:40:40;34.60;66.90
13268;DHT22;6702;47.068;15.458;2023-06-22T11:43:45;34.50;67.90
13268;DHT22;6702;47.068;15.458;2023-06-22T11:46:48;34.60;67.10
13268;DHT22;6702;47.068;15.458;2023-06-22T11:49:51;34.70;66.60
13268;DHT22;6702;47.068;15.458;2023-06-22T11:52:55;34.90;66.10
13268;DHT22;6702;47.068;15.458;2023-06-22T11:55:58;34.60;67.00
13268;DHT22;6702;47.068;15.458;2023-06-22T11:59:03;34.50;67.30
13268;DHT22;6702;47.068;15.458;2023-06-22T12:02:07;34.40;66.40
13268;DHT22;6702;47.068;15.458;2023-06-22T12:05:11;34.10;67.60
13268;DHT22;6702;47.068;15.458;2023-06-22T12:08:15;34.00;68.30
13268;DHT22;6702;47.068;15.458;2023-06-22T12:11:18;33.70;68.60
13268;DHT22;6702;47.068;15.458;2023-06-22T12:14:26;33.10;70.40
13268;DHT22;6702;47.068;15.458;2023-06-22T12:17:31;32.80;71.90
13268;DHT22;6702;47.068;15.458;2023-06-22T12:20:34;33.20;71.40
13268;DHT22;6702;47.068;15.458;2023-06-22T12:23:38;33.50;71.10
13268;DHT22;6702;47.068;15.458;2023-06-22T12:26:41;33.90;70.10
13268;DHT22;6702;47.068;15.458;2023-06-22T12:29:47;33.70;70.00
13268;DHT22;6702;47.068;15.458;2023-06-22T12:32:50;33.60;70.10
13268;DHT22;6702;47.068;15.458;2023-06-22T12:35:55;33.50;70.00
13268;DHT22;6702;47.068;15.458;2023-06-22T12:38:59;33.80;70.00
13268;DHT22;6702;47.068;15.458;2023-06-22T12:42:02;34.10;69.30
13268;DHT22;6702;47.068;15.458;2023-06-22T12:45:09;34.20;68.20
13268;DHT22;6702;47.068;15.458;2023-06-22T12:48:12;33.80;70.00
13268;DHT22;6702;47.068;15.458;2023-06-22T12:51:20;33.40;70.20
13268;DHT22;6702;47.068;15.458;2023-06-22T12:54:24;32.90;71.40
13268;DHT22;6702;47.068;15.458;2023-06-22T12:57:35;32.90;71.50
13268;DHT22;6702;47.068;15.458;2023-06-22T13:00:40;33.20;70.60
13268;DHT22;6702;47.068;15.458;2023-06-22T13:03:43;33.30;70.00
13268;DHT22;6702;47.068;15.458;2023-06-22T13:06:47;33.50;69.30
13268;DHT22;6702;47.068;15.458;2023-06-22T13:09:53;33.70;69.40
13268;DHT22;6702;47.068;15.458;2023-06-22T13:12:57;33.80;69.80
13268;DHT22;6702;47.068;15.458;2023-06-22T13:29:50;34.00;68.00
13268;DHT22;6702;47.068;15.458;2023-06-22T13:32:54;33.80;69.50
13268;DHT22;6702;47.068;15.458;2023-06-22T13:35:57;33.80;69.40
13268;DHT22;6702;47.068;15.458;2023-06-22T13:39:00;34.10;68.60
13268;DHT22;6702;47.068;15.458;2023-06-22T13:42:04;34.10;67.70
13268;DHT22;6702;47.068;15.458;2023-06-22T13:45:10;34.00;67.30
13268;DHT22;6702;47.068;15.458;2023-06-22T13:48:13;34.00;68.20
13268;DHT22;6702;47.068;15.458;2023-06-22T13:51:16;34.10;68.20
13268;DHT22;6702;47.068;15.458;2023-06-22T13:54:19;34.20;68.50
13268;DHT22;6702;47.068;15.458;2023-06-22T13:57:30;34.10;68.80
13268;DHT22;6702;47.068;15.458;2023-06-22T14:00:35;34.00;69.30
13268;DHT22;6702;47.068;15.458;2023-06-22T14:03:39;33.90;70.00
13268;DHT22;6702;47.068;15.458;2023-06-22T14:06:42;33.90;70.10
13268;DHT22;6702;47.068;15.458;2023-06-22T14:09:45;33.90;69.60
13268;DHT22;6702;47.068;15.458;2023-06-22T14:12:48;33.90;69.40
13268;DHT22;6702;47.068;15.458;2023-06-22T14:15:53;33.80;69.20
13268;DHT22;6702;47.068;15.458;2023-06-22T14:18:56;33.80;69.50
13268;DHT22;6702;47.068;15.458;2023-06-22T14:21:59;33.80;70.10
13268;DHT22;6702;47.068;15.458;2023-06-22T14:25:05;33.90;69.80
13268;DHT22;6702;47.068;15.458;2023-06-22T14:28:08;34.10;70.10
13268;DHT22;6702;47.068;15.458;2023-06-22T14:31:13;33.80;70.20
13268;DHT22;6702;47.068;15.458;2023-06-22T14:34:17;33.70;71.00
13268;DHT22;6702;47.068;15.458;2023-06-22T14:37:20;33.70;70.80
13268;DHT22;6702;47.068;15.458;2023-06-22T14:40:23;33.70;71.10
13268;DHT22;6702;47.068;15.458;2023-06-22T14:43:27;33.70;70.90
13268;DHT22;6702;47.068;15.458;2023-06-22T14:46:32;33.80;70.70
13268;DHT22;6702;47.068;15.458;2023-06-22T14:49:35;33.90;71.00
13268;DHT22;6702;47.068;15.458;2023-06-22T14:52:38;33.60;72.20
13268;DHT22;6702;47.068;15.458;2023-06-22T14:55:42;33.10;72.70
13268;DHT22;6702;47.068;15.458;2023-06-22T14:58:45;33.10;73.20
13268;DHT22;6702;47.068;15.458;2023-06-22T15:01:50;32.90;72.40
13268;DHT22;6702;47.068;15.458;2023-06-22T15:04:53;32.80;74.20
13268;DHT22;6702;47.068;15.458;2023-06-22T15:07:57;32.90;73.90
13268;DHT22;6702;47.068;15.458;2023-06-22T15:11:00;33.00;73.60
13268;DHT22;6702;47.068;15.458;2023-06-22T15:14:04;32.90;73.70
13268;DHT22;6702;47.068;15.458;2023-06-22T15:17:09;32.70;74.90
13268;DHT22;6702;47.068;15.458;2023-06-22T15:20:12;32.70;75.00
13268;DHT22;6702;47.068;15.458;2023-06-22T15:23:17;33.00;74.90
13268;DHT22;6702;47.068;15.458;2023-06-22T15:26:20;33.00;74.90
13268;DHT22;6702;47.068;15.458;2023-06-22T15:29:24;33.00;74.80
13268;DHT22;6702;47.068;15.458;2023-06-22T15:32:28;33.10;74.40
13268;DHT22;6702;47.068;15.458;2023-06-22T15:35:31;33.10;75.10
13268;DHT22;6702;47.068;15.458;2023-06-22T15:38:35;33.10;75.30
13268;DHT22;6702;47.068;15.458;2023-06-22T15:41:40;33.10;75.30
13268;DHT22;6702;47.068;15.458;2023-06-22T15:44:43;33.00;75.30
13268;DHT22;6702;47.068;15.458;2023-06-22T15:47:48;33.00;75.50
13268;DHT22;6702;47.068;15.458;2023-06-22T15:50:51;32.90;76.20
13268;DHT22;6702;47.068;15.458;2023-06-22T15:53:54;32.90;76.90
13268;DHT22;6702;47.068;15.458;2023-06-22T15:57:01;32.90;77.40
13268;DHT22;6702;47.068;15.458;2023-06-22T16:00:06;32.90;77.30
13268;DHT22;6702;47.068;15.458;2023-06-22T16:03:10;32.80;77.40
13268;DHT22;6702;47.068;15.458;2023-06-22T16:06:14;32.60;78.70
13268;DHT22;6702;47.068;15.458;2023-06-22T16:09:17;32.70;78.80
13268;DHT22;6702;47.068;15.458;2023-06-22T16:12:20;32.90;78.90
13268;DHT22;6702;47.068;15.458;2023-06-22T16:15:23;33.10;78.30
13268;DHT22;6702;47.068;15.458;2023-06-22T16:18:28;33.00;78.30
13268;DHT22;6702;47.068;15.458;2023-06-22T16:21:31;32.90;79.10
13268;DHT22;6702;47.068;15.458;2023-06-22T16:24:34;33.10;79.10
13268;DHT22;6702;47.068;15.458;2023-06-22T16:27:38;33.10;78.90
13268;DHT22;6702;47.068;15.458;2023-06-22T16:30:41;32.90;79.20
13268;DHT22;6702;47.068;15.458;2023-06-22T16:33:46;32.60;80.30
13268;DHT22;6702;47.068;15.458;2023-06-22T16:36:49;32.50;81.30
13268;DHT22;6702;47.068;15.458;2023-06-22T16:39:54;32.50;81.60
13268;DHT22;6702;47.068;15.458;2023-06-22T16:43:00;32.50;81.80
13268;DHT22;6702;47.068;15.458;2023-06-22T16:46:03;32.60;82.20
13268;DHT22;6702;47.068;15.458;2023-06-22T16:49:07;32.50;82.30
13268;DHT22;6702;47.068;15.458;2023-06-22T16:52:11;32.40;83.10
13268;DHT22;6702;47.068;15.458;2023-06-22T16:55:14;32.40;83.20
13268;DHT22;6702;47.068;15.458;2023-06-22T16:58:18;32.30;83.60
13268;DHT22;6702;47.068;15.458;2023-06-22T17:01:25;32.20;83.50
13268;DHT22;6702;47.068;15.458;2023-06-22T17:04:30;32.10;84.20
13268;DHT22;6702;47.068;15.458;2023-06-22T17:07:36;32.00;84.50
13268;DHT22;6702;47.068;15.458;2023-06-22T17:10:41;32.00;84.70
13268;DHT22;6702;47.068;15.458;2023-06-22T17:13:45;32.00;85.10
13268;DHT22;6702;47.068;15.458;2023-06-22T17:16:51;31.70;85.70
13268;DHT22;6702;47.068;15.458;2023-06-22T17:19:56;31.60;86.80
13268;DHT22;6702;47.068;15.458;2023-06-22T17:22:59;31.50;88.60
13268;DHT22;6702;47.068;15.458;2023-06-22T17:26:05;31.40;88.60
13268;DHT22;6702;47.068;15.458;2023-06-22T17:29:09;31.20;89.30
13268;DHT22;6702;47.068;15.458;2023-06-22T17:32:12;31.20;89.80
13268;DHT22;6702;47.068;15.458;2023-06-22T17:35:17;31.10;90.00
13268;DHT22;6702;47.068;15.458;2023-06-22T17:38:20;31.10;90.20
13268;DHT22;6702;47.068;15.458;2023-06-22T17:41:31;31.10;90.50
13268;DHT22;6702;47.068;15.458;2023-06-22T17:44:34;31.00;90.60
13268;DHT22;6702;47.068;15.458;2023-06-22T17:47:38;31.00;90.70
13268;DHT22;6702;47.068;15.458;2023-06-22T17:50:43;31.10;90.90
13268;DHT22;6702;47.068;15.458;2023-06-22T17:53:49;31.00;91.00
13268;DHT22;6702;47.068;15.458;2023-06-22T17:56:52;31.00;91.30
13268;DHT22;6702;47.068;15.458;2023-06-22T17:59:55;31.00;91.70
13268;DHT22;6702;47.068;15.458;2023-06-22T18:02:59;31.00;92.00
13268;DHT22;6702;47.068;15.458;2023-06-22T18:06:04;30.90;92.20
13268;DHT22;6702;47.068;15.458;2023-06-22T18:09:15;30.80;92.40
13268;DHT22;6702;47.068;15.458;2023-06-22T18:12:19;30.70;92.70
13268;DHT22;6702;47.068;15.458;2023-06-22T18:15:23;30.70;92.80
13268;DHT22;6702;47.068;15.458;2023-06-22T18:18:27;30.60;92.90
13268;DHT22;6702;47.068;15.458;2023-06-22T18:21:33;30.60;93.00
13268;DHT22;6702;47.068;15.458;2023-06-22T18:24:36;30.50;93.20
13268;DHT22;6702;47.068;15.458;2023-06-22T18:27:42;30.50;93.50
13268;DHT22;6702;47.068;15.458;2023-06-22T18:30:46;30.30;94.10
13268;DHT22;6702;47.068;15.458;2023-06-22T18:33:50;30.30;94.40
13268;DHT22;6702;47.068;15.458;2023-06-22T18:36:57;30.20;94.50
13268;DHT22;6702;47.068;15.458;2023-06-22T18:40:02;30.10;94.60
13268;DHT22;6702;47.068;15.458;2023-06-22T18:43:08;30.10;94.80
13268;DHT22;6702;47.068;15.458;2023-06-22T18:46:30;30.00;94.90
13268;DHT22;6702;47.068;15.458;2023-06-22T18:49:44;29.90;95.20
13268;DHT22;6702;47.068;15.458;2023-06-22T18:53:01;29.90;95.50
13268;DHT22;6702;47.068;15.458;2023-06-22T18:56:12;29.80;95.90
13268;DHT22;6702;47.068;15.458;2023-06-22T18:59:15;29.70;96.00
13268;DHT22;6702;47.068;15.458;2023-06-22T19:02:42;29.70;96.20
13268;DHT22;6702;47.068;15.458;2023-06-22T19:05:46;29.60;96.90
13268;DHT22;6702;47.068;15.458;2023-06-22T19:09:14;29.60;96.90
13268;DHT22;6702;47.068;15.458;2023-06-22T19:12:22;29.60;97.60
13268;DHT22;6702;47.068;15.458;2023-06-22T19:15:31;29.40;97.90
13268;DHT22;6702;47.068;15.458;2023-06-22T19:18:36;29.40;98.30
13268;DHT22;6702;47.068;15.458;2023-06-22T19:21:40;29.30;98.70
13268;DHT22;6702;47.068;15.458;2023-06-22T19:24:50;29.30;99.30
13268;DHT22;6702;47.068;15.458;2023-06-22T19:27:54;29.20;99.70
13268;DHT22;6702;47.068;15.458;2023-06-22T19:30:58;29.10;99.90
13268;DHT22;6702;47.068;15.458;2023-06-22T19:34:03;29.10;99.90
13268;DHT22;6702;47.068;15.458;2023-06-22T19:37:14;29.00;99.90
13268;DHT22;6702;47.068;15.458;2023-06-22T19:40:20;29.00;99.90